createdAt,value
2023-03-27T00:00:13.492Z,5.54
2023-03-27T00:01:13.461Z,5.54
2023-03-27T00:02:13.412Z,5.53
2023-03-27T00:03:13.430Z,5.50
2023-03-27T00:04:13.434Z,5.50
2023-03-27T00:05:13.350Z,5.48
2023-03-27T00:06:13.360Z,5.50
2023-03-27T00:07:13.329Z,5.47
2023-03-27T00:08:13.311Z,5.47
2023-03-27T00:09:13.291Z,5.46
2023-03-27T00:10:13.329Z,5.44
2023-03-27T00:11:13.283Z,5.43
2023-03-27T00:12:13.265Z,5.41
2023-03-27T00:13:13.252Z,5.43
2023-03-27T00:14:13.233Z,5.41
2023-03-27T00:15:13.233Z,5.38
2023-03-27T00:16:13.293Z,5.39
2023-03-27T00:17:13.206Z,5.36
2023-03-27T00:18:13.190Z,5.36
2023-03-27T00:19:13.221Z,5.35
2023-03-27T00:20:13.168Z,5.33
2023-03-27T00:21:13.245Z,5.32
2023-03-27T00:22:13.138Z,5.30
2023-03-27T00:23:13.128Z,5.29
2023-03-27T00:24:13.110Z,5.28
2023-03-27T00:25:13.088Z,5.29
2023-03-27T00:26:13.099Z,5.29
2023-03-27T00:27:13.065Z,5.26
2023-03-27T00:28:13.066Z,5.26
2023-03-27T00:29:13.040Z,5.25
2023-03-27T00:30:13.042Z,5.26
2023-03-27T00:31:13.095Z,5.23
2023-03-27T00:32:13.002Z,5.23
2023-03-27T00:33:12.989Z,5.20
2023-03-27T00:34:12.979Z,5.18
2023-03-27T00:35:12.957Z,5.15
2023-03-27T00:36:12.965Z,5.14
2023-03-27T00:37:12.937Z,5.12
2023-03-27T00:38:12.928Z,5.12
2023-03-27T00:39:12.910Z,5.10
2023-03-27T00:40:12.908Z,5.08
2023-03-27T00:41:12.990Z,5.07
2023-03-27T00:42:12.875Z,5.04
2023-03-27T00:43:12.868Z,5.02
2023-03-27T00:44:12.850Z,5.02
2023-03-27T00:45:12.833Z,5.02
2023-03-27T00:46:12.871Z,4.99
2023-03-27T00:47:12.827Z,4.97
2023-03-27T00:48:12.798Z,4.97
2023-03-27T00:49:12.791Z,4.96
2023-03-27T00:50:12.777Z,4.94
2023-03-27T00:51:12.771Z,4.94
2023-03-27T00:52:12.748Z,4.94
2023-03-27T00:53:12.731Z,4.93
2023-03-27T00:54:12.721Z,4.92
2023-03-27T00:55:12.702Z,4.93
2023-03-27T00:56:12.717Z,4.90
2023-03-27T00:57:12.783Z,4.89
2023-03-27T00:58:12.667Z,4.89
2023-03-27T00:59:12.678Z,4.87
2023-03-27T01:00:12.643Z,4.86
2023-03-27T01:01:12.658Z,4.84
2023-03-27T01:02:12.634Z,4.82
2023-03-27T01:03:12.644Z,4.80
2023-03-27T01:04:12.605Z,4.80
2023-03-27T01:05:12.577Z,4.80
2023-03-27T01:06:12.575Z,4.75
2023-03-27T01:07:12.548Z,4.75
2023-03-27T01:08:12.541Z,4.74
2023-03-27T01:09:20.149Z,4.68
2023-03-27T01:10:13.517Z,4.68
2023-03-27T01:11:12.510Z,4.67
2023-03-27T01:12:12.486Z,4.63
2023-03-27T01:13:12.475Z,4.63
2023-03-27T01:14:12.454Z,4.62
2023-03-27T01:15:12.437Z,4.60
2023-03-27T01:16:12.501Z,4.59
2023-03-27T01:17:12.413Z,4.58
2023-03-27T01:18:12.408Z,4.56
2023-03-27T01:19:12.507Z,4.55
2023-03-27T01:20:12.376Z,4.53
2023-03-27T01:21:12.383Z,4.50
2023-03-27T01:22:12.350Z,4.49
2023-03-27T01:23:12.333Z,4.48
2023-03-27T01:24:12.332Z,4.45
2023-03-27T01:25:12.306Z,4.45
2023-03-27T01:26:12.319Z,4.42
2023-03-27T01:27:12.279Z,4.40
2023-03-27T01:28:12.266Z,4.40
2023-03-27T01:29:12.301Z,4.38
2023-03-27T01:30:12.261Z,4.35
2023-03-27T01:31:12.258Z,4.34
2023-03-27T01:32:12.212Z,4.32
2023-03-27T01:33:12.214Z,4.30
2023-03-27T01:34:12.197Z,4.28
2023-03-27T01:35:12.177Z,4.26
2023-03-27T01:36:12.174Z,4.24
2023-03-27T01:37:12.148Z,4.22
2023-03-27T01:38:12.135Z,4.20
2023-03-27T01:39:12.127Z,4.16
2023-03-27T01:40:12.110Z,4.16
2023-03-27T01:41:12.105Z,4.14
2023-03-27T01:42:12.100Z,4.12
2023-03-27T01:43:12.078Z,4.10
2023-03-27T01:44:12.080Z,4.08
2023-03-27T01:45:12.050Z,4.05
2023-03-27T01:46:12.079Z,4.04
2023-03-27T01:47:12.017Z,4.02
2023-03-27T01:48:12.018Z,4.01
2023-03-27T01:49:12.009Z,4.01
2023-03-27T01:50:12.009Z,3.96
2023-03-27T01:51:11.964Z,3.95
2023-03-27T01:52:11.985Z,3.94
2023-03-27T01:53:11.942Z,3.92
2023-03-27T01:54:11.932Z,3.88
2023-03-27T01:55:11.924Z,3.87
2023-03-27T01:56:11.903Z,3.84
2023-03-27T01:57:11.974Z,3.84
2023-03-27T01:58:11.880Z,3.81
2023-03-27T01:59:11.866Z,3.80
2023-03-27T02:00:18.002Z,3.77
2023-03-27T02:01:13.016Z,3.78
2023-03-27T02:02:11.847Z,3.76
2023-03-27T02:03:11.823Z,3.74
2023-03-27T02:04:11.807Z,3.70
2023-03-27T02:05:11.879Z,3.69
2023-03-27T02:06:11.787Z,3.68
2023-03-27T02:07:11.779Z,3.66
2023-03-27T02:08:11.749Z,3.65
2023-03-27T02:09:11.732Z,3.62
2023-03-27T02:10:11.727Z,3.60
2023-03-27T02:11:11.728Z,3.59
2023-03-27T02:12:11.717Z,3.55
2023-03-27T02:13:11.689Z,3.53
2023-03-27T02:14:11.673Z,3.51
2023-03-27T02:15:22.971Z,3.51
2023-03-27T02:16:12.719Z,3.48
2023-03-27T02:17:11.652Z,3.48
2023-03-27T02:18:11.628Z,3.48
2023-03-27T02:19:11.613Z,3.47
2023-03-27T02:20:11.617Z,3.44
2023-03-27T02:21:11.579Z,3.41
2023-03-27T02:22:11.590Z,3.41
2023-03-27T02:23:11.552Z,3.36
2023-03-27T02:24:11.553Z,3.36
2023-03-27T02:25:11.547Z,3.34
2023-03-27T02:26:11.525Z,3.32
2023-03-27T02:27:11.517Z,3.29
2023-03-27T02:28:11.486Z,3.26
2023-03-27T02:29:11.509Z,3.26
2023-03-27T02:30:11.474Z,3.25
2023-03-27T02:31:33.485Z,3.22
2023-03-27T02:32:12.496Z,3.22
2023-03-27T02:33:11.489Z,3.19
2023-03-27T02:34:11.454Z,3.18
2023-03-27T02:35:11.413Z,3.13
2023-03-27T02:36:11.436Z,3.13
2023-03-27T02:37:11.806Z,3.11
2023-03-27T02:38:11.382Z,3.10
2023-03-27T02:39:11.359Z,3.07
2023-03-27T02:40:11.340Z,3.05
2023-03-27T02:41:11.325Z,3.05
2023-03-27T02:42:11.332Z,3.05
2023-03-27T02:43:11.294Z,3.00
2023-03-27T02:44:11.375Z,3.00
2023-03-27T02:45:11.280Z,3.00
2023-03-27T02:46:11.302Z,2.97
2023-03-27T02:47:11.268Z,2.97
2023-03-27T02:48:11.305Z,2.93
2023-03-27T02:49:11.234Z,2.92
2023-03-27T02:50:11.221Z,2.92
2023-03-27T02:51:11.207Z,2.87
2023-03-27T02:52:11.218Z,2.87
2023-03-27T02:53:11.175Z,2.86
2023-03-27T02:54:11.172Z,2.85
2023-03-27T02:55:11.155Z,2.83
2023-03-27T02:56:11.161Z,2.80
2023-03-27T02:57:11.183Z,2.80
2023-03-27T02:58:11.154Z,2.79
2023-03-27T02:59:11.098Z,2.77
2023-03-27T03:00:11.095Z,2.75
2023-03-27T03:01:11.112Z,2.72
2023-03-27T03:02:11.101Z,2.69
2023-03-27T03:03:11.163Z,2.69
2023-03-27T03:04:11.049Z,2.68
2023-03-27T03:05:11.018Z,2.65
2023-03-27T03:06:11.035Z,2.65
2023-03-27T03:07:11.010Z,2.64
2023-03-27T03:08:10.984Z,2.64
2023-03-27T03:09:10.978Z,2.62
2023-03-27T03:10:10.961Z,2.57
2023-03-27T03:11:10.944Z,2.57
2023-03-27T03:12:10.971Z,2.54
2023-03-27T03:13:10.918Z,2.54
2023-03-27T03:14:10.912Z,2.51
2023-03-27T03:15:10.906Z,2.50
2023-03-27T03:16:10.982Z,2.51
2023-03-27T03:17:10.883Z,2.47
2023-03-27T03:18:10.859Z,2.46
2023-03-27T03:19:10.859Z,2.46
2023-03-27T03:20:10.851Z,2.43
2023-03-27T03:21:10.821Z,2.43
2023-03-27T03:22:10.826Z,2.43
2023-03-27T03:23:10.800Z,2.39
2023-03-27T03:24:10.788Z,2.38
2023-03-27T03:25:10.770Z,2.38
2023-03-27T03:26:10.819Z,2.36
2023-03-27T03:27:10.778Z,2.33
2023-03-27T03:28:10.735Z,2.33
2023-03-27T03:29:12.780Z,2.32
2023-03-27T03:30:10.713Z,2.31
2023-03-27T03:31:11.750Z,2.29
2023-03-27T03:32:10.701Z,2.29
2023-03-27T03:33:10.670Z,2.26
2023-03-27T03:34:10.648Z,2.25
2023-03-27T03:35:10.666Z,2.25
2023-03-27T03:36:10.682Z,2.24
2023-03-27T03:37:10.635Z,2.22
2023-03-27T03:38:10.609Z,2.22
2023-03-27T03:39:10.600Z,2.20
2023-03-27T03:40:10.577Z,2.20
2023-03-27T03:41:10.655Z,2.18
2023-03-27T03:42:10.566Z,2.17
2023-03-27T03:43:11.598Z,2.20
2023-03-27T03:44:10.599Z,2.18
2023-03-27T03:45:10.544Z,2.18
2023-03-27T03:46:10.549Z,2.17
2023-03-27T03:47:10.506Z,2.17
2023-03-27T03:48:10.530Z,2.15
2023-03-27T03:49:10.466Z,2.15
2023-03-27T03:50:10.452Z,2.17
2023-03-27T03:51:10.458Z,2.15
2023-03-27T03:52:10.469Z,2.14
2023-03-27T03:53:10.415Z,2.15
2023-03-27T03:54:10.432Z,2.14
2023-03-27T03:55:10.428Z,2.13
2023-03-27T03:56:10.375Z,2.13
2023-03-27T03:57:10.415Z,2.14
2023-03-27T03:58:10.352Z,2.13
2023-03-27T03:59:10.336Z,2.13
2023-03-27T04:00:10.317Z,2.13
2023-03-27T04:01:10.324Z,2.11
2023-03-27T04:02:10.363Z,2.10
2023-03-27T04:03:10.369Z,2.08
2023-03-27T04:04:10.266Z,2.07
2023-03-27T04:05:10.277Z,2.10
2023-03-27T04:06:10.266Z,2.07
2023-03-27T04:07:10.243Z,2.06
2023-03-27T04:08:10.234Z,2.06
2023-03-27T04:09:10.203Z,2.04
2023-03-27T04:10:10.190Z,2.04
2023-03-27T04:11:10.192Z,2.02
2023-03-27T04:12:10.194Z,2.00
2023-03-27T04:13:10.161Z,2.00
2023-03-27T04:14:10.162Z,2.00
2023-03-27T04:15:10.136Z,1.99
2023-03-27T04:16:10.188Z,1.95
2023-03-27T04:17:10.120Z,1.97
2023-03-27T04:18:10.184Z,1.95
2023-03-27T04:19:10.082Z,1.92
2023-03-27T04:20:10.067Z,1.92
2023-03-27T04:21:10.060Z,1.92
2023-03-27T04:22:10.063Z,1.89
2023-03-27T04:23:10.031Z,1.89
2023-03-27T04:24:10.011Z,1.88
2023-03-27T04:25:10.026Z,1.89
2023-03-27T04:26:10.015Z,1.87
2023-03-27T04:27:09.993Z,1.87
2023-03-27T04:28:09.965Z,1.85
2023-03-27T04:29:09.962Z,1.84
2023-03-27T04:30:09.945Z,1.84
2023-03-27T04:31:09.959Z,1.81
2023-03-27T04:32:09.928Z,1.80
2023-03-27T04:33:09.911Z,1.78
2023-03-27T04:34:09.901Z,1.78
2023-03-27T04:35:09.892Z,1.77
2023-03-27T04:36:09.926Z,1.76
2023-03-27T04:37:09.870Z,1.76
2023-03-27T04:38:09.854Z,1.74
2023-03-27T04:39:09.831Z,1.73
2023-03-27T04:40:09.821Z,1.74
2023-03-27T04:41:09.813Z,1.71
2023-03-27T04:42:09.806Z,1.73
2023-03-27T04:43:09.806Z,1.73
2023-03-27T04:44:09.772Z,1.71
2023-03-27T04:45:09.777Z,1.70
2023-03-27T04:46:09.764Z,1.71
2023-03-27T04:47:09.782Z,1.71
2023-03-27T04:48:09.725Z,1.70
2023-03-27T04:49:09.710Z,1.68
2023-03-27T04:50:09.696Z,1.68
2023-03-27T04:51:09.722Z,1.68
2023-03-27T04:52:09.666Z,1.67
2023-03-27T04:53:09.672Z,1.68
2023-03-27T04:54:09.643Z,1.68
2023-03-27T04:55:09.641Z,1.68
2023-03-27T04:56:09.617Z,1.68
2023-03-27T04:57:09.653Z,1.70
2023-03-27T04:58:09.609Z,1.70
2023-03-27T04:59:09.583Z,1.68
2023-03-27T05:00:09.573Z,1.67
2023-03-27T05:01:09.687Z,1.68
2023-03-27T05:02:09.573Z,1.68
2023-03-27T05:03:09.619Z,1.70
2023-03-27T05:04:09.515Z,1.68
2023-03-27T05:05:09.506Z,1.68
2023-03-27T05:06:09.486Z,1.70
2023-03-27T05:07:09.478Z,1.68
2023-03-27T05:08:09.473Z,1.70
2023-03-27T05:09:09.489Z,1.70
2023-03-27T05:10:09.439Z,1.71
2023-03-27T05:11:09.556Z,1.71
2023-03-27T05:12:09.409Z,1.71
2023-03-27T05:13:09.420Z,1.71
2023-03-27T05:14:09.379Z,1.71
2023-03-27T05:15:09.374Z,1.71
2023-03-27T05:16:09.375Z,1.73
2023-03-27T05:17:09.351Z,1.74
2023-03-27T05:18:09.611Z,1.74
2023-03-27T05:19:09.341Z,1.73
2023-03-27T05:20:09.312Z,1.74
2023-03-27T05:21:09.312Z,1.74
2023-03-27T05:22:09.283Z,1.74
2023-03-27T05:23:09.293Z,1.76
2023-03-27T05:24:09.257Z,1.74
2023-03-27T05:25:09.257Z,1.74
2023-03-27T05:26:09.237Z,1.76
2023-03-27T05:27:09.219Z,1.76
2023-03-27T05:28:09.222Z,1.76
2023-03-27T05:29:09.196Z,1.76
2023-03-27T05:30:09.178Z,1.77
2023-03-27T05:31:09.211Z,1.78
2023-03-27T05:32:09.161Z,1.80
2023-03-27T05:33:09.224Z,1.81
2023-03-27T05:34:09.126Z,1.85
2023-03-27T05:35:09.123Z,1.92
2023-03-27T05:36:09.130Z,2.00
2023-03-27T05:37:09.101Z,2.14
2023-03-27T05:38:09.093Z,2.29
2023-03-27T05:39:09.074Z,2.44
2023-03-27T05:40:09.080Z,2.60
2023-03-27T05:41:09.043Z,2.75
2023-03-27T05:42:09.039Z,2.85
2023-03-27T05:43:09.034Z,2.80
2023-03-27T05:44:09.001Z,2.74
2023-03-27T05:45:09.007Z,2.67
2023-03-27T05:46:09.078Z,2.69
2023-03-27T05:47:08.973Z,2.79
2023-03-27T05:48:09.098Z,2.87
2023-03-27T05:49:08.976Z,2.93
2023-03-27T05:50:08.925Z,2.97
2023-03-27T05:51:08.914Z,2.97
2023-03-27T05:52:08.897Z,2.92
2023-03-27T05:53:08.907Z,2.87
2023-03-27T05:54:08.870Z,2.83
2023-03-27T05:55:08.862Z,2.80
2023-03-27T05:56:08.852Z,2.77
2023-03-27T05:57:08.873Z,2.77
2023-03-27T05:58:08.837Z,2.83
2023-03-27T05:59:08.810Z,2.89
2023-03-27T06:00:08.790Z,2.92
2023-03-27T06:01:08.783Z,3.01
2023-03-27T06:02:08.792Z,3.08
2023-03-27T06:03:09.004Z,3.19
2023-03-27T06:04:08.801Z,3.32
2023-03-27T06:05:08.731Z,3.45
2023-03-27T06:06:08.718Z,3.59
2023-03-27T06:07:08.708Z,3.68
2023-03-27T06:08:08.702Z,3.80
2023-03-27T06:09:08.679Z,3.88
2023-03-27T06:10:13.273Z,3.99
2023-03-27T06:11:09.651Z,4.08
2023-03-27T06:12:08.638Z,4.19
2023-03-27T06:13:08.658Z,4.24
2023-03-27T06:14:08.610Z,4.31
2023-03-27T06:15:08.607Z,4.31
2023-03-27T06:16:08.696Z,4.32
2023-03-27T06:17:08.576Z,4.38
2023-03-27T06:18:08.594Z,4.42
2023-03-27T06:19:08.562Z,4.38
2023-03-27T06:20:08.545Z,4.35
2023-03-27T06:21:08.532Z,4.32
2023-03-27T06:22:08.518Z,4.31
2023-03-27T06:23:08.515Z,4.30
2023-03-27T06:24:08.484Z,4.30
2023-03-27T06:25:08.487Z,4.31
2023-03-27T06:26:08.458Z,4.28
2023-03-27T06:27:10.726Z,4.30
2023-03-27T06:28:08.445Z,4.28
2023-03-27T06:29:08.674Z,4.28
2023-03-27T06:30:08.405Z,4.30
2023-03-27T06:31:08.477Z,4.31
2023-03-27T06:32:08.387Z,4.37
2023-03-27T06:33:08.447Z,4.44
2023-03-27T06:34:08.352Z,4.55
2023-03-27T06:35:08.361Z,4.66
2023-03-27T06:36:08.429Z,4.75
2023-03-27T06:37:08.330Z,4.86
2023-03-27T06:38:08.313Z,4.97
2023-03-27T06:39:08.294Z,5.08
2023-03-27T06:40:08.274Z,5.18
2023-03-27T06:41:08.272Z,5.32
2023-03-27T06:42:08.258Z,5.43
2023-03-27T06:43:08.264Z,5.56
2023-03-27T06:44:08.228Z,5.65
2023-03-27T06:45:08.227Z,5.73
2023-03-27T06:46:08.308Z,5.84
2023-03-27T06:47:08.327Z,5.94
2023-03-27T06:48:16.201Z,6.05
2023-03-27T06:49:09.165Z,6.16
2023-03-27T06:50:08.142Z,6.26
2023-03-27T06:51:08.131Z,6.36
2023-03-27T06:52:08.121Z,6.48
2023-03-27T06:53:19.538Z,6.60
2023-03-27T06:54:09.098Z,6.72
2023-03-27T06:55:08.099Z,6.82
2023-03-27T06:56:09.072Z,6.95
2023-03-27T06:57:08.085Z,7.05
2023-03-27T06:58:08.057Z,7.11
2023-03-27T06:59:08.039Z,7.17
2023-03-27T07:00:08.068Z,7.28
2023-03-27T07:01:08.016Z,7.39
2023-03-27T07:02:08.037Z,7.50
2023-03-27T07:03:08.016Z,7.61
2023-03-27T07:04:07.971Z,7.75
2023-03-27T07:05:07.965Z,7.88
2023-03-27T07:06:08.040Z,7.98
2023-03-27T07:07:07.928Z,8.12
2023-03-27T07:08:18.970Z,8.20
2023-03-27T07:09:08.897Z,8.36
2023-03-27T07:10:07.874Z,8.46
2023-03-27T07:11:11.627Z,8.56
2023-03-27T07:12:07.854Z,8.67
2023-03-27T07:13:07.856Z,8.79
2023-03-27T07:14:07.825Z,8.89
2023-03-27T07:15:07.816Z,9.00
2023-03-27T07:16:07.866Z,9.10
2023-03-27T07:17:09.287Z,9.22
2023-03-27T07:18:07.798Z,9.29
2023-03-27T07:19:07.797Z,9.40
2023-03-27T07:20:07.752Z,9.50
2023-03-27T07:21:07.744Z,9.59
2023-03-27T07:22:07.722Z,9.68
2023-03-27T07:23:07.714Z,9.80
2023-03-27T07:24:07.890Z,9.91
2023-03-27T07:25:07.713Z,9.99
2023-03-27T07:26:07.669Z,10.10
2023-03-27T07:27:07.656Z,10.22
2023-03-27T07:28:07.640Z,10.34
2023-03-27T07:29:07.642Z,10.46
2023-03-27T07:30:07.611Z,10.60
2023-03-27T07:31:16.719Z,10.74
2023-03-27T07:32:09.543Z,10.86
2023-03-27T07:33:07.710Z,10.97
2023-03-27T07:34:07.745Z,11.11
2023-03-27T07:35:07.555Z,11.25
2023-03-27T07:36:07.572Z,11.40
2023-03-27T07:37:07.535Z,11.54
2023-03-27T07:38:07.515Z,11.70
2023-03-27T07:39:07.520Z,11.84
2023-03-27T07:40:07.488Z,11.78
2023-03-27T07:41:07.480Z,11.63
2023-03-27T07:42:07.480Z,11.48
2023-03-27T07:43:07.452Z,11.35
2023-03-27T07:44:07.445Z,11.18
2023-03-27T07:45:07.406Z,11.02
2023-03-27T07:46:07.459Z,10.86
2023-03-27T07:47:07.391Z,10.71
2023-03-27T07:48:07.478Z,10.57
2023-03-27T07:49:07.378Z,10.41
2023-03-27T07:50:07.360Z,10.30
2023-03-27T07:51:13.854Z,10.23
2023-03-27T07:52:08.328Z,10.16
2023-03-27T07:53:07.343Z,10.10
2023-03-27T07:54:07.331Z,10.04
2023-03-27T07:55:07.311Z,9.99
2023-03-27T07:56:07.286Z,9.95
2023-03-27T07:57:07.371Z,9.92
2023-03-27T07:58:07.415Z,9.92
2023-03-27T07:59:07.271Z,9.92
2023-03-27T08:00:07.241Z,9.97
2023-03-27T08:01:07.235Z,10.02
2023-03-27T08:02:07.203Z,10.10
2023-03-27T08:03:07.493Z,10.09
2023-03-27T08:04:07.403Z,10.07
2023-03-27T08:05:07.288Z,10.07
2023-03-27T08:06:07.172Z,10.10
2023-03-27T08:07:07.147Z,10.09
2023-03-27T08:08:07.137Z,10.04
2023-03-27T08:09:07.130Z,9.99
2023-03-27T08:10:07.106Z,9.94
2023-03-27T08:11:11.494Z,9.84
2023-03-27T08:12:08.076Z,9.79
2023-03-27T08:13:07.055Z,9.73
2023-03-27T08:14:07.069Z,9.72
2023-03-27T08:15:07.023Z,9.69
2023-03-27T08:16:07.025Z,9.95
2023-03-27T08:17:15.617Z,10.28
2023-03-27T08:18:08.082Z,10.68
2023-03-27T08:19:06.985Z,11.02
2023-03-27T08:20:06.961Z,11.22
2023-03-27T08:21:06.953Z,11.47
2023-03-27T08:22:06.951Z,11.77
2023-03-27T08:23:06.922Z,11.99
2023-03-27T08:24:06.922Z,11.91
2023-03-27T08:25:06.930Z,12.17
2023-03-27T08:26:06.895Z,12.43
2023-03-27T08:27:06.859Z,12.70
2023-03-27T08:28:06.872Z,12.97
2023-03-27T08:29:06.862Z,13.27
2023-03-27T08:30:06.864Z,13.47
2023-03-27T08:31:06.815Z,13.62
2023-03-27T08:32:06.812Z,13.86
2023-03-27T08:33:06.845Z,14.03
2023-03-27T08:34:06.803Z,14.17
2023-03-27T08:35:06.759Z,14.28
2023-03-27T08:36:08.815Z,14.17
2023-03-27T08:37:06.744Z,13.96
2023-03-27T08:38:13.812Z,13.87
2023-03-27T08:39:07.726Z,14.07
2023-03-27T08:40:06.694Z,13.97
2023-03-27T08:41:06.683Z,13.79
2023-03-27T08:42:06.672Z,13.72
2023-03-27T08:43:06.673Z,13.57
2023-03-27T08:44:06.662Z,13.42
2023-03-27T08:45:06.657Z,13.27
2023-03-27T08:46:06.664Z,13.23
2023-03-27T08:47:06.608Z,13.54
2023-03-27T08:48:06.657Z,13.63
2023-03-27T08:49:06.590Z,13.72
2023-03-27T08:50:06.578Z,14.08
2023-03-27T08:51:06.553Z,14.03
2023-03-27T08:52:06.541Z,13.89
2023-03-27T08:53:06.535Z,13.72
2023-03-27T08:54:06.544Z,13.62
2023-03-27T08:55:06.550Z,13.47
2023-03-27T08:56:06.507Z,13.68
2023-03-27T08:57:06.482Z,14.08
2023-03-27T08:58:06.468Z,14.23
2023-03-27T08:59:06.465Z,14.45
2023-03-27T09:00:06.437Z,14.40
2023-03-27T09:01:06.437Z,14.25
2023-03-27T09:02:06.451Z,14.11
2023-03-27T09:03:06.496Z,13.96
2023-03-27T09:04:06.415Z,13.85
2023-03-27T09:05:06.392Z,14.18
2023-03-27T09:06:06.367Z,14.55
2023-03-27T09:07:06.353Z,14.78
2023-03-27T09:08:06.342Z,14.85
2023-03-27T09:09:06.332Z,14.72
2023-03-27T09:10:06.316Z,14.58
2023-03-27T09:11:06.287Z,14.40
2023-03-27T09:12:06.288Z,14.18
2023-03-27T09:13:06.265Z,13.99
2023-03-27T09:14:06.295Z,13.81
2023-03-27T09:15:06.250Z,13.68
2023-03-27T09:16:06.258Z,13.65
2023-03-27T09:17:06.214Z,13.78
2023-03-27T09:18:06.228Z,13.92
2023-03-27T09:19:06.200Z,13.96
2023-03-27T09:20:06.191Z,13.86
2023-03-27T09:21:06.161Z,13.72
2023-03-27T09:22:06.152Z,13.56
2023-03-27T09:23:06.133Z,13.44
2023-03-27T09:24:06.128Z,13.35
2023-03-27T09:25:06.105Z,13.23
2023-03-27T09:26:06.094Z,13.13
2023-03-27T09:27:07.534Z,13.04
2023-03-27T09:28:06.062Z,13.00
2023-03-27T09:29:06.078Z,12.87
2023-03-27T09:30:06.514Z,12.78
2023-03-27T09:31:06.035Z,12.68
2023-03-27T09:32:06.041Z,12.60
2023-03-27T09:33:06.073Z,12.53
2023-03-27T09:34:06.014Z,12.46
2023-03-27T09:35:05.972Z,12.50
2023-03-27T09:36:06.006Z,12.68
2023-03-27T09:37:05.952Z,12.87
2023-03-27T09:38:05.925Z,12.87
2023-03-27T09:39:05.924Z,13.30
2023-03-27T09:40:05.924Z,13.77
2023-03-27T09:41:05.900Z,14.23
2023-03-27T09:42:06.826Z,14.68
2023-03-27T09:43:05.878Z,15.10
2023-03-27T09:44:05.871Z,15.51
2023-03-27T09:45:05.863Z,15.91
2023-03-27T09:46:05.849Z,16.02
2023-03-27T09:47:05.823Z,16.00
2023-03-27T09:48:05.850Z,16.05
2023-03-27T09:49:05.842Z,16.36
2023-03-27T09:50:05.782Z,16.31
2023-03-27T09:51:05.792Z,16.46
2023-03-27T09:52:05.763Z,16.69
2023-03-27T09:53:05.736Z,16.87
2023-03-27T09:54:05.737Z,17.12
2023-03-27T09:55:05.848Z,17.41
2023-03-27T09:56:05.740Z,17.71
2023-03-27T09:57:05.703Z,17.97
2023-03-27T09:58:05.721Z,18.03
2023-03-27T09:59:05.666Z,18.03
2023-03-27T10:00:05.641Z,17.94
2023-03-27T10:01:05.661Z,17.70
2023-03-27T10:02:06.975Z,17.51
2023-03-27T10:03:05.863Z,17.34
2023-03-27T10:04:05.671Z,17.11
2023-03-27T10:05:05.588Z,16.84
2023-03-27T10:06:05.566Z,16.58
2023-03-27T10:07:05.614Z,16.35
2023-03-27T10:08:05.535Z,16.23
2023-03-27T10:09:05.564Z,16.09
2023-03-27T10:10:05.615Z,15.90
2023-03-27T10:11:05.497Z,15.70
2023-03-27T10:12:05.836Z,15.52
2023-03-27T10:13:05.488Z,15.36
2023-03-27T10:14:05.511Z,15.17
2023-03-27T10:15:05.503Z,15.11
2023-03-27T10:16:05.555Z,15.39
2023-03-27T10:17:05.488Z,15.72
2023-03-27T10:18:05.443Z,15.84
2023-03-27T10:19:05.451Z,15.84
2023-03-27T10:20:05.464Z,15.80
2023-03-27T10:21:05.373Z,15.73
2023-03-27T10:22:05.382Z,15.58
2023-03-27T10:23:05.383Z,15.39
2023-03-27T10:24:05.461Z,15.19
2023-03-27T10:25:05.393Z,15.02
2023-03-27T10:26:05.408Z,14.84
2023-03-27T10:27:05.384Z,14.65
2023-03-27T10:28:05.298Z,14.47
2023-03-27T10:29:05.289Z,14.28
2023-03-27T10:30:05.277Z,14.11
2023-03-27T10:31:05.273Z,13.90
2023-03-27T10:32:05.321Z,13.74
2023-03-27T10:33:05.296Z,13.54
2023-03-27T10:34:05.231Z,13.39
2023-03-27T10:35:05.193Z,13.25
2023-03-27T10:36:05.213Z,13.15
2023-03-27T10:37:05.177Z,13.11
2023-03-27T10:38:05.148Z,13.15
2023-03-27T10:39:05.147Z,13.47
2023-03-27T10:40:05.137Z,13.86
2023-03-27T10:41:05.104Z,14.23
2023-03-27T10:42:05.139Z,14.45
2023-03-27T10:43:05.078Z,14.60
2023-03-27T10:44:05.086Z,14.63
2023-03-27T10:45:05.111Z,14.55
2023-03-27T10:46:05.139Z,14.45
2023-03-27T10:47:05.046Z,14.30
2023-03-27T10:48:05.026Z,14.12
2023-03-27T10:49:05.015Z,13.99
2023-03-27T10:50:04.989Z,13.85
2023-03-27T10:51:04.973Z,13.74
2023-03-27T10:52:04.965Z,13.62
2023-03-27T10:53:04.983Z,13.50
2023-03-27T10:54:05.061Z,13.39
2023-03-27T10:55:04.919Z,13.30
2023-03-27T10:56:04.914Z,13.20
2023-03-27T10:57:04.896Z,13.18
2023-03-27T10:58:04.882Z,13.18
2023-03-27T10:59:04.889Z,13.20
2023-03-27T11:00:04.917Z,13.15
2023-03-27T11:01:04.869Z,13.05
2023-03-27T11:02:04.832Z,12.97
2023-03-27T11:03:04.875Z,12.87
2023-03-27T11:04:04.808Z,12.83
2023-03-27T11:05:04.804Z,12.83
2023-03-27T11:06:04.770Z,12.80
2023-03-27T11:07:04.759Z,12.86
2023-03-27T11:08:04.743Z,12.91
2023-03-27T11:09:04.753Z,12.93
2023-03-27T11:10:04.756Z,13.04
2023-03-27T11:11:04.746Z,13.19
2023-03-27T11:12:04.690Z,13.27
2023-03-27T11:13:04.677Z,13.35
2023-03-27T11:14:04.696Z,13.46
2023-03-27T11:15:04.664Z,13.50
2023-03-27T11:16:04.649Z,13.63
2023-03-27T11:17:04.695Z,13.83
2023-03-27T11:18:04.636Z,13.87
2023-03-27T11:19:04.610Z,13.86
2023-03-27T11:20:04.618Z,13.83
2023-03-27T11:21:04.583Z,13.75
2023-03-27T11:22:04.580Z,13.67
2023-03-27T11:23:04.572Z,13.57
2023-03-27T11:24:04.610Z,13.46
2023-03-27T11:25:04.562Z,13.31
2023-03-27T11:26:04.557Z,13.19
2023-03-27T11:27:04.508Z,13.12
2023-03-27T11:28:04.495Z,13.03
2023-03-27T11:29:04.478Z,12.97
2023-03-27T11:30:04.477Z,12.87
2023-03-27T11:31:12.926Z,12.83
2023-03-27T11:32:05.481Z,12.75
2023-03-27T11:33:04.504Z,12.65
2023-03-27T11:34:04.405Z,12.57
2023-03-27T11:35:04.613Z,12.46
2023-03-27T11:36:04.472Z,12.32
2023-03-27T11:37:04.396Z,12.21
2023-03-27T11:38:04.353Z,12.07
2023-03-27T11:39:04.344Z,11.97
2023-03-27T11:40:04.352Z,11.84
2023-03-27T11:41:04.313Z,11.69
2023-03-27T11:42:04.311Z,11.70
2023-03-27T11:43:04.282Z,11.43
2023-03-27T11:44:04.277Z,11.33
2023-03-27T11:45:04.281Z,11.19
2023-03-27T11:46:04.268Z,11.10
2023-03-27T11:47:04.253Z,10.99
2023-03-27T11:48:04.259Z,10.87
2023-03-27T11:49:04.217Z,10.78
2023-03-27T11:50:04.232Z,10.69
2023-03-27T11:51:04.238Z,10.57
2023-03-27T11:52:04.179Z,10.48
2023-03-27T11:53:04.164Z,10.41
2023-03-27T11:54:04.397Z,10.34
2023-03-27T11:55:04.154Z,10.26
2023-03-27T11:56:04.128Z,10.22
2023-03-27T11:57:04.159Z,10.16
2023-03-27T11:58:04.105Z,10.15
2023-03-27T11:59:04.077Z,10.13
2023-03-27T12:00:04.087Z,10.17
2023-03-27T12:01:04.057Z,10.22
2023-03-27T12:02:04.070Z,10.31
2023-03-27T12:03:04.107Z,10.34
2023-03-27T12:04:04.099Z,10.42
2023-03-27T12:05:04.014Z,10.49
2023-03-27T12:06:03.988Z,10.59
2023-03-27T12:07:04.905Z,10.67
2023-03-27T12:08:03.953Z,10.67
2023-03-27T12:09:03.963Z,10.84
2023-03-27T12:10:03.952Z,10.92
2023-03-27T12:11:03.940Z,10.99
2023-03-27T12:12:03.926Z,11.05
2023-03-27T12:13:03.900Z,11.11
2023-03-27T12:14:08.928Z,11.18
2023-03-27T12:15:04.922Z,11.25
2023-03-27T12:16:03.902Z,11.27
2023-03-27T12:17:03.929Z,11.35
2023-03-27T12:18:03.974Z,11.40
2023-03-27T12:19:10.657Z,11.45
2023-03-27T12:20:04.816Z,11.50
2023-03-27T12:21:04.125Z,11.54
2023-03-27T12:22:09.282Z,11.55
2023-03-27T12:23:04.767Z,11.60
2023-03-27T12:24:03.744Z,11.70
2023-03-27T12:25:03.756Z,11.70
2023-03-27T12:26:03.748Z,11.83
2023-03-27T12:27:03.925Z,11.87
2023-03-27T12:28:03.686Z,11.91
2023-03-27T12:29:03.685Z,11.97
2023-03-27T12:30:04.691Z,12.04
2023-03-27T12:31:03.662Z,12.09
2023-03-27T12:32:03.690Z,12.15
2023-03-27T12:33:03.657Z,12.18
2023-03-27T12:34:03.612Z,12.24
2023-03-27T12:35:03.653Z,12.28
2023-03-27T12:36:03.676Z,12.31
2023-03-27T12:37:03.580Z,12.39
2023-03-27T12:38:03.588Z,12.46
2023-03-27T12:39:03.559Z,12.46
2023-03-27T12:40:03.556Z,12.61
2023-03-27T12:41:03.518Z,12.65
2023-03-27T12:42:03.514Z,12.76
2023-03-27T12:43:03.505Z,12.85
2023-03-27T12:44:03.554Z,12.93
2023-03-27T12:45:03.518Z,13.01
2023-03-27T12:46:03.683Z,13.09
2023-03-27T12:47:03.475Z,13.09
2023-03-27T12:48:03.504Z,13.03
2023-03-27T12:49:03.441Z,13.08
2023-03-27T12:50:03.447Z,13.08
2023-03-27T12:51:03.409Z,13.18
2023-03-27T12:52:03.377Z,13.18
2023-03-27T12:53:03.380Z,13.19
2023-03-27T12:54:03.480Z,13.44
2023-03-27T12:55:03.358Z,13.44
2023-03-27T12:56:03.321Z,13.54
2023-03-27T12:57:03.478Z,13.56
2023-03-27T12:58:03.455Z,13.56
2023-03-27T12:59:04.965Z,13.50
2023-03-27T13:00:03.297Z,13.44
2023-03-27T13:01:03.319Z,13.37
2023-03-27T13:02:03.372Z,13.28
2023-03-27T13:03:03.429Z,13.28
2023-03-27T13:04:03.280Z,13.08
2023-03-27T13:05:06.709Z,12.95
2023-03-27T13:06:04.198Z,12.85
2023-03-27T13:07:03.200Z,12.68